Terminal Aerodrome Forecast
Issued by NWS Glasgow, MT

Home | Current Version | Previous Version | Text Only | Print | Product List | Glossary On
Versions: 1 2 3 4 5 6 7 8 9 10 11
393
FTUS45 KGGW 231725
TAFGGW
TAF
KGGW 231725Z 2318/2418 10019G27KT P6SM BKN012
     FM232000 11017KT P6SM VCSH OVC020
     FM232100 11016G24KT P6SM VCSH OVC035
     FM240300 09010KT 6SM -SHRASN OVC008
     FM240900 06006KT P6SM BKN012=

USA.gov is the U.S. government's official web portal to all federal, state and local government web resources and services.